Главная страница
METAR-TAF:

METAR-TAF

Аэропорты :

Тунис-Карфаген

Тунис, Тунис

широта: 36-50N, долгота: 010-14E, высота над уровнем моря: 3 м

Текущие метеонаблюдения

Эта сводка был подготовлена 27 минут назад, в 09:00 UTC
Ветер 6 Узел от юго-западный, изменяющийся между южный и западный-юго-западный
Температура 17°C
Влажность 59%
Давление 1020 hPa
Видимость 10 км и более
небольшая облачность на высоте 2600 фута

METAR: DTTA 250900Z 22006KT 190V250 9999 FEW026 17/09 Q1020 NOSIG

Время: 10:27 (09:27 UTC)

Прогноз

Эта сводка был подготовлена 4 часа и 27 минут назад, в 05:00 UTC
Прогноз действительный с 25-го 06 UTC до 26-го 06 UTC
Ветер 4 Узел от южный
Видимость 10 км и более
небольшая облачность на высоте 3000 фута

TAF: DTTA 250500Z 2506/2606 18004KT 9999 FEW030

Метеонаблюдения и прогнозы для более 4000 аэропортов (сводки METAR и TAF).

Имеющиеся станции представлены на карте желтыми и красными точками.

Чтобы увидеть название станции, наведите на нее мышь.

Затем щелкните, чтобы увидеть метеонаблюдения и метеопрогнозы.

Управление картой: чтобы увеличить масштаб, щелкните зеленые кнопки с черным крестиком; чтобы уменьшить масштаб, щелкните зеленую кнопку с тире; для просмотра соседних карт щелкайте зеленые стрелки.


METAR-TAF: